Time;durP1;ratioP1;P1;durP2;ratioP2;P2;SDS_P1;SDS_P2;PMS_P1;PMS_P2;Temp;Humidity;BMP_temperature;BMP_pressure;BME280_temperature;BME280_humidity;BME280_pressure;Samples;Min_cycle;Max_cycle;Signal;HPM_P1;HPM_P2
2023/05/27 00:01:07;;;;;;;26.73;18.42;;;27.10;99.90;;;;;;1826638;77;21124;-86
2023/05/27 00:03:38;;;;;;;27.82;18.92;;;27.00;99.90;;;;;;1884542;75;21622;-86
2023/05/27 00:06:11;;;;;;;30.52;21.60;;;27.00;99.90;;;;;;1881082;75;21103;-86
2023/05/27 00:08:43;;;;;;;25.35;18.55;;;26.90;99.90;;;;;;1882773;75;21150;-86
2023/05/27 00:11:17;;;;;;;27.77;18.23;;;26.90;99.90;;;;;;1882258;75;21154;-86
2023/05/27 00:13:47;;;;;;;24.15;18.92;;;26.80;99.90;;;;;;1884090;75;21159;-86
2023/05/27 00:16:21;;;;;;;25.55;20.27;;;26.80;99.90;;;;;;1884441;75;21178;-87
2023/05/27 00:18:55;;;;;;;23.05;19.67;;;26.70;99.90;;;;;;1879756;75;21161;-86
2023/05/27 00:21:27;;;;;;;23.80;18.48;;;26.70;99.90;;;;;;1890246;75;21661;-86
2023/05/27 00:23:58;;;;;;;24.45;18.37;;;26.70;99.90;;;;;;1884792;75;21104;-85
2023/05/27 00:26:34;;;;;;;24.30;17.75;;;26.90;99.90;;;;;;1889402;75;21134;-86
2023/05/27 00:29:07;;;;;;;26.17;19.98;;;26.60;99.90;;;;;;1882834;75;22061;-86
2023/05/27 00:31:39;;;;;;;26.82;19.20;;;26.60;99.90;;;;;;1870651;75;21116;-88
2023/05/27 00:34:15;;;;;;;23.60;17.52;;;26.60;99.90;;;;;;1884879;75;22202;-86
2023/05/27 00:36:44;;;;;;;19.48;17.10;;;26.60;99.90;;;;;;1882944;75;21174;-86
2023/05/27 00:39:16;;;;;;;21.07;17.07;;;26.60;99.90;;;;;;1880793;75;21266;-80
2023/05/27 00:41:52;;;;;;;22.85;18.23;;;26.70;99.90;;;;;;1879826;75;21213;-78
2023/05/27 00:44:23;;;;;;;23.70;18.95;;;26.70;99.90;;;;;;1885587;75;21611;-79
2023/05/27 00:46:55;;;;;;;23.73;19.00;;;26.70;99.90;;;;;;1888294;75;21175;-76
2023/05/27 00:49:26;;;;;;;25.72;19.27;;;26.70;99.90;;;;;;1889658;75;21151;-79
2023/05/27 00:51:58;;;;;;;21.30;18.40;;;26.80;99.90;;;;;;1898444;74;21248;-77
2023/05/27 00:54:31;;;;;;;25.48;19.95;;;26.90;99.90;;;;;;1896266;74;21143;-79
2023/05/27 00:57:06;;;;;;;28.12;20.25;;;26.90;99.90;;;;;;1905572;74;21122;-84
2023/05/27 00:59:38;;;;;;;22.05;18.52;;;27.00;99.90;;;;;;1893234;74;21112;-80
2023/05/27 01:02:27;;;;;;;25.02;19.60;;;27.10;99.90;;;;;;1916425;74;21205;-81
2023/05/27 01:04:58;;;;;;;21.57;19.27;;;27.10;99.90;;;;;;1879363;74;21220;-79
2023/05/27 01:07:42;;;;;;;25.77;19.62;;;27.20;99.90;;;;;;1894928;74;21126;-81
2023/05/27 01:14:08;;;;;;;24.20;20.70;;;27.30;99.90;;;;;;1844670;76;21087;-80
2023/05/27 01:16:56;;;;;;;25.02;20.25;;;27.30;99.90;;;;;;1782450;78;21113;-80
2023/05/27 01:19:33;;;;;;;28.47;21.62;;;27.30;99.90;;;;;;1857648;76;21203;-77
2023/05/27 01:22:08;;;;;;;25.50;21.33;;;27.30;99.90;;;;;;1847289;76;21104;-80
2023/05/27 01:24:41;;;;;;;24.95;21.45;;;27.30;99.90;;;;;;1852057;76;21160;-79
2023/05/27 01:27:14;;;;;;;30.62;21.85;;;27.30;99.90;;;;;;1863131;76;21201;-79
2023/05/27 01:29:45;;;;;;;25.80;21.68;;;27.40;99.90;;;;;;1859591;76;21197;-77
2023/05/27 01:32:38;;;;;;;27.02;19.45;;;27.40;99.90;;;;;;1857068;76;21251;-78
2023/05/27 01:35:30;;;;;;;21.35;17.85;;;27.50;99.90;;;;;;1855886;76;21193;-75
2023/05/27 01:38:01;;;;;;;20.40;17.25;;;27.50;99.90;;;;;;1847076;76;21745;-77
2023/05/27 01:40:39;;;;;;;25.50;18.80;;;27.50;99.90;;;;;;1856167;76;21090;-79
2023/05/27 01:43:15;;;;;;;27.65;18.92;;;27.60;99.90;;;;;;1864436;76;21226;-81
2023/05/27 01:45:48;;;;;;;26.57;18.48;;;27.60;99.90;;;;;;1859853;76;21137;-82
2023/05/27 01:48:20;;;;;;;20.48;16.02;;;27.70;99.90;;;;;;1850002;76;21198;-81
2023/05/27 01:50:52;;;;;;;26.25;18.75;;;27.70;99.90;;;;;;1877487;75;21175;-81
2023/05/27 01:53:23;;;;;;;23.30;18.17;;;27.70;99.90;;;;;;1868450;75;21171;-81
2023/05/27 01:55:58;;;;;;;21.60;18.20;;;27.80;99.90;;;;;;1870568;75;21140;-77
2023/05/27 01:58:32;;;;;;;24.92;18.67;;;27.80;99.90;;;;;;1877570;75;21199;-80
2023/05/27 02:01:04;;;;;;;26.60;18.55;;;27.90;99.90;;;;;;1865406;75;21576;-78
2023/05/27 02:03:38;;;;;;;22.55;17.45;;;27.90;99.90;;;;;;1872671;75;21091;-77
2023/05/27 02:06:09;;;;;;;21.80;17.60;;;27.90;99.90;;;;;;1876165;75;21101;-80
2023/05/27 02:08:46;;;;;;;22.45;17.55;;;27.90;99.90;;;;;;1867825;75;21185;-80
2023/05/27 02:11:17;;;;;;;21.23;16.85;;;27.90;99.90;;;;;;1878888;75;21108;-78
2023/05/27 02:13:49;;;;;;;28.23;18.42;;;27.90;99.90;;;;;;1863129;75;21596;-79
2023/05/27 02:16:20;;;;;;;28.62;17.92;;;27.90;99.90;;;;;;1870918;75;21542;-75
2023/05/27 02:18:51;;;;;;;25.55;17.82;;;27.90;99.90;;;;;;1870618;75;21086;-79
2023/05/27 02:21:23;;;;;;;24.95;18.12;;;27.90;99.90;;;;;;1877377;75;21602;-82
2023/05/27 02:23:54;;;;;;;21.97;17.80;;;27.90;99.90;;;;;;1874858;75;21140;-78
2023/05/27 02:26:29;;;;;;;32.25;17.73;;;28.00;99.90;;;;;;1869615;75;21122;-79
2023/05/27 02:29:00;;;;;;;24.63;19.02;;;28.00;99.90;;;;;;1840163;76;21089;-80
2023/05/27 02:31:31;;;;;;;46.42;23.10;;;28.00;99.90;;;;;;1871142;75;21115;-79
2023/05/27 02:34:03;;;;;;;38.40;20.88;;;28.00;99.90;;;;;;1864280;75;21155;-76
2023/05/27 02:36:38;;;;;;;32.20;20.75;;;28.00;99.90;;;;;;1833219;76;21067;-79
2023/05/27 02:39:11;;;;;;;30.35;20.30;;;28.00;99.90;;;;;;1876785;75;21207;-77
2023/05/27 02:41:42;;;;;;;28.45;20.02;;;28.00;99.90;;;;;;1869382;75;21196;-75
2023/05/27 02:44:14;;;;;;;30.40;24.60;;;28.00;99.90;;;;;;1871263;75;21049;-79
2023/05/27 02:46:48;;;;;;;25.65;20.32;;;28.00;99.90;;;;;;1872817;75;21070;-77
2023/05/27 02:49:21;;;;;;;23.90;20.27;;;28.10;99.90;;;;;;1875351;75;21160;-81
2023/05/27 02:52:02;;;;;;;28.00;19.52;;;28.10;99.90;;;;;;1877676;75;21457;-81
2023/05/27 02:54:29;;;;;;;27.07;20.10;;;28.10;99.90;;;;;;1868202;75;21231;-81
2023/05/27 02:57:01;;;;;;;26.27;20.43;;;28.10;99.90;;;;;;1870687;75;21129;-81
2023/05/27 02:59:51;;;;;;;28.00;20.68;;;28.10;99.90;;;;;;1886266;75;21222;-80
2023/05/27 03:02:27;;;;;;;24.80;19.98;;;28.20;99.90;;;;;;1871818;75;21113;-82
2023/05/27 03:05:00;;;;;;;26.48;21.00;;;28.20;99.90;;;;;;1868674;75;21811;-78
2023/05/27 03:07:34;;;;;;;28.27;22.23;;;28.20;99.90;;;;;;1869403;75;21115;-80
2023/05/27 03:10:07;;;;;;;60.38;26.30;;;28.30;99.90;;;;;;1871632;75;21167;-81
2023/05/27 03:12:41;;;;;;;45.70;25.20;;;28.30;99.90;;;;;;1875190;75;21100;-78
2023/05/27 03:15:12;;;;;;;31.20;21.45;;;28.40;99.90;;;;;;1867893;75;21673;-79
2023/05/27 03:17:45;;;;;;;26.35;21.42;;;28.50;99.90;;;;;;1877595;75;21120;-78
2023/05/27 03:20:18;;;;;;;28.65;21.35;;;28.60;99.90;;;;;;1871754;75;21160;-80
2023/05/27 03:22:55;;;;;;;28.38;22.17;;;28.70;99.90;;;;;;1861968;75;21051;-78
2023/05/27 03:25:26;;;;;;;28.45;21.60;;;28.80;99.90;;;;;;1868598;75;21124;-80
2023/05/27 03:27:57;;;;;;;27.00;19.85;;;29.00;99.90;;;;;;1873582;75;21614;-83
2023/05/27 03:30:30;;;;;;;27.05;22.50;;;29.20;99.90;;;;;;1863044;75;21579;-83
2023/05/27 03:33:04;;;;;;;27.10;21.90;;;29.50;99.90;;;;;;1881786;75;21140;-79
2023/05/27 03:35:46;;;;;;;27.83;20.47;;;29.70;99.90;;;;;;1878319;75;21134;-82
2023/05/27 03:38:18;;;;;;;27.87;21.35;;;29.90;99.90;;;;;;1838565;76;21840;-83
2023/05/27 03:40:50;;;;;;;25.37;20.15;;;30.10;99.90;;;;;;1873134;75;21704;-79
2023/05/27 03:43:21;;;;;;;27.10;19.57;;;30.30;99.90;;;;;;1883496;75;21136;-80
2023/05/27 03:45:53;;;;;;;24.25;19.57;;;30.50;99.90;;;;;;1883037;75;21108;-81
2023/05/27 03:48:24;;;;;;;27.42;20.35;;;30.60;99.90;;;;;;1878791;75;21163;-83
2023/05/27 03:50:55;;;;;;;24.87;19.85;;;30.80;99.90;;;;;;1883186;75;21544;-83
2023/05/27 03:53:27;;;;;;;25.17;18.95;;;30.90;99.90;;;;;;1886064;75;21174;-76
2023/05/27 03:58:33;;;;;;;26.97;18.27;;;31.00;99.90;;;;;;1861816;75;21280;-81
2023/05/27 04:01:11;;;;;;;23.42;19.17;;;31.10;99.90;;;;;;1884348;75;21143;-80
2023/05/27 04:03:42;;;;;;;31.07;19.65;;;31.30;99.90;;;;;;1883941;75;21154;-84
2023/05/27 04:06:13;;;;;;;26.82;20.25;;;31.40;99.90;;;;;;1895116;74;21139;-83
2023/05/27 04:08:58;;;;;;;24.00;17.92;;;31.50;99.90;;;;;;1849789;76;21191;-87
2023/05/27 04:11:17;;;;;;;24.37;18.50;;;31.50;99.90;;;;;;1876578;75;21163;-82
2023/05/27 04:14:09;;;;;;;30.27;19.00;;;31.60;99.90;;;;;;1882230;75;21108;-85
2023/05/27 04:20:17;;;;;;;26.30;19.77;;;31.80;99.90;;;;;;1738056;79;21151;-79
2023/05/27 04:22:49;;;;;;;24.05;19.32;;;31.90;99.90;;;;;;1817758;75;21189;-84
2023/05/27 04:25:20;;;;;;;29.82;19.52;;;31.90;99.90;;;;;;1892508;74;21129;-79
2023/05/27 04:27:58;;;;;;;29.82;22.05;;;31.80;99.90;;;;;;1881760;75;21084;-85
2023/05/27 04:30:34;;;;;;;29.80;21.60;;;31.80;99.90;;;;;;1889544;75;21583;-80
2023/05/27 04:33:18;;;;;;;23.75;20.02;;;31.70;99.90;;;;;;1849595;75;21146;-82
2023/05/27 04:35:53;;;;;;;25.92;20.00;;;31.70;99.90;;;;;;1893238;75;21045;-80
2023/05/27 04:38:22;;;;;;;22.20;19.82;;;31.70;99.90;;;;;;1880442;75;21104;-78
2023/05/27 04:40:56;;;;;;;27.77;20.40;;;31.70;99.90;;;;;;1887964;75;21127;-81
2023/05/27 04:43:29;;;;;;;27.42;21.73;;;31.70;99.90;;;;;;1899372;74;21075;-80
2023/05/27 04:46:00;;;;;;;30.77;22.48;;;31.70;99.90;;;;;;1857820;76;21945;-86
2023/05/27 04:48:31;;;;;;;45.23;22.65;;;31.70;99.90;;;;;;1886546;75;21192;-83
2023/05/27 04:51:04;;;;;;;28.67;20.95;;;31.70;99.90;;;;;;1890663;74;21130;-79
2023/05/27 04:53:35;;;;;;;27.48;21.35;;;31.80;99.90;;;;;;1909859;74;21084;-81
2023/05/27 04:56:08;;;;;;;28.27;21.37;;;31.90;99.90;;;;;;1896511;74;21192;-78
2023/05/27 04:58:46;;;;;;;27.75;21.42;;;31.90;99.90;;;;;;1900375;75;21155;-81
2023/05/27 05:01:18;;;;;;;29.50;21.87;;;31.90;99.90;;;;;;1888984;74;21207;-82
2023/05/27 05:06:40;;;;;;;24.52;21.17;;;31.90;99.90;;;;;;1893143;74;21809;-83
2023/05/27 05:09:12;;;;;;;26.97;21.20;;;32.00;99.90;;;;;;1898565;75;21229;-78
2023/05/27 05:11:43;;;;;;;25.10;20.65;;;32.00;99.90;;;;;;1893035;74;21115;-80
2023/05/27 05:14:15;;;;;;;24.98;20.40;;;32.00;99.90;;;;;;1902924;74;21139;-80
2023/05/27 05:16:46;;;;;;;25.52;19.73;;;31.90;99.90;;;;;;1901179;74;21075;-78
2023/05/27 05:19:18;;;;;;;26.27;20.48;;;31.90;99.90;;;;;;1895595;74;21127;-79
2023/05/27 05:21:49;;;;;;;29.42;22.62;;;31.90;99.90;;;;;;1893731;74;21110;-81
2023/05/27 05:24:20;;;;;;;29.55;24.60;;;31.90;99.90;;;;;;1894914;74;21167;-79
2023/05/27 05:27:16;;;;;;;;;;;;;;;;;;;;;
2023/05/27 05:30:01;;;;;;;31.35;27.98;;;32.00;99.90;;;;;;1874133;73;21133;-82
2023/05/27 05:32:35;;;;;;;28.12;20.02;;;32.00;99.90;;;;;;1872931;73;21153;-82
2023/05/27 05:35:06;;;;;;;24.37;19.92;;;32.10;99.90;;;;;;1900969;74;21185;-80
2023/05/27 05:37:38;;;;;;;27.95;19.92;;;32.30;99.90;;;;;;1896490;74;21129;-82
2023/05/27 05:40:16;;;;;;;23.30;19.65;;;32.40;99.90;;;;;;1892667;74;21159;-85
2023/05/27 05:42:45;;;;;;;23.42;19.82;;;32.50;99.60;;;;;;1904604;74;21228;-82
2023/05/27 05:45:27;;;;;;;26.73;19.60;;;32.60;99.70;;;;;;1891516;74;21141;-89
2023/05/27 05:48:04;;;;;;;22.90;19.37;;;32.80;99.60;;;;;;1865769;75;21166;-86
2023/05/27 05:50:39;;;;;;;23.00;19.35;;;32.90;99.50;;;;;;1901598;74;21131;-84
2023/05/27 05:53:11;;;;;;;24.23;18.65;;;33.00;98.60;;;;;;1870676;75;21160;-86
2023/05/27 05:55:43;;;;;;;21.00;18.32;;;33.10;98.40;;;;;;1874785;75;21118;-82
2023/05/27 05:58:14;;;;;;;25.85;18.12;;;33.10;98.30;;;;;;1870224;75;21164;-82
2023/05/27 06:00:46;;;;;;;23.67;19.12;;;33.10;98.10;;;;;;1867090;75;21111;-83
2023/05/27 06:03:22;;;;;;;23.15;19.15;;;33.00;97.80;;;;;;1874351;75;21135;-85
2023/05/27 06:05:56;;;;;;;20.90;17.65;;;33.00;98.00;;;;;;1874564;75;21311;-79
2023/05/27 06:08:28;;;;;;;29.37;19.52;;;32.80;98.10;;;;;;1868701;75;21143;-83
2023/05/27 06:11:00;;;;;;;24.23;18.48;;;32.70;98.60;;;;;;1885752;75;21860;-82
2023/05/27 06:13:31;;;;;;;27.22;20.95;;;32.60;99.00;;;;;;1871084;75;21099;-82
2023/05/27 06:16:11;;;;;;;23.73;18.98;;;32.60;98.90;;;;;;1877524;75;21161;-85
2023/05/27 06:18:45;;;;;;;23.98;19.05;;;32.60;98.90;;;;;;1863856;75;21172;-85
2023/05/27 06:24:29;;;;;;;27.20;18.00;;;32.60;98.10;;;;;;1750636;80;21215;-79
2023/05/27 06:27:10;;;;;;;23.65;18.45;;;32.70;98.70;;;;;;1786747;79;21841;-83
2023/05/27 06:29:45;;;;;;;23.20;18.30;;;32.70;98.60;;;;;;1787313;79;21132;-80
2023/05/27 06:32:16;;;;;;;23.98;18.00;;;32.80;98.30;;;;;;1736109;81;21250;-84
2023/05/27 06:34:48;;;;;;;24.90;18.23;;;32.80;98.10;;;;;;1779475;79;21245;-82
2023/05/27 06:37:19;;;;;;;20.68;16.42;;;32.70;98.00;;;;;;1758849;80;21155;-86
2023/05/27 06:39:51;;;;;;;21.85;17.65;;;32.70;98.30;;;;;;1782034;79;21202;-78
2023/05/27 06:42:23;;;;;;;21.48;17.07;;;32.70;98.30;;;;;;1778639;79;21140;-81
2023/05/27 06:44:54;;;;;;;23.77;18.32;;;32.70;98.00;;;;;;1779322;79;21167;-84
2023/05/27 06:47:25;;;;;;;22.10;18.23;;;32.70;97.90;;;;;;1795374;79;21275;-85
2023/05/27 06:49:57;;;;;;;26.33;20.72;;;32.70;97.60;;;;;;1785052;79;21656;-86
2023/05/27 06:52:28;;;;;;;23.92;18.15;;;32.70;98.00;;;;;;1789382;79;21243;-82
2023/05/27 06:54:59;;;;;;;25.50;17.50;;;32.60;98.20;;;;;;1750221;80;21183;-86
2023/05/27 06:57:31;;;;;;;23.07;17.70;;;32.60;98.30;;;;;;1781209;79;21278;-84
2023/05/27 07:00:05;;;;;;;21.55;17.42;;;32.70;98.30;;;;;;1789139;79;21196;-82
2023/05/27 07:02:35;;;;;;;23.05;17.70;;;32.70;97.90;;;;;;1890779;74;21619;-81
2023/05/27 07:05:07;;;;;;;19.02;16.90;;;32.70;98.40;;;;;;1891024;74;21145;-84
2023/05/27 07:07:38;;;;;;;27.22;17.48;;;32.70;98.00;;;;;;1899351;74;21221;-85
2023/05/27 07:16:18;;;;;;;20.43;17.42;;;32.80;97.30;;;;;;1758148;80;21283;-85
2023/05/27 07:19:02;;;;;;;23.67;16.85;;;32.80;97.20;;;;;;1786335;79;21210;-79
2023/05/27 07:21:40;;;;;;;21.07;16.93;;;32.90;97.30;;;;;;1810296;77;21082;-78
2023/05/27 07:24:17;;;;;;;20.60;16.95;;;32.90;97.50;;;;;;1891591;75;21135;-85
2023/05/27 07:26:45;;;;;;;20.35;17.40;;;32.90;97.20;;;;;;1878928;75;21143;-83
2023/05/27 07:29:16;;;;;;;19.57;17.60;;;32.90;97.40;;;;;;1878438;75;21099;-85
2023/05/27 07:32:22;;;;;;;21.85;17.27;;;33.00;97.10;;;;;;1881610;75;21183;-86
2023/05/27 07:34:53;;;;;;;23.62;17.50;;;33.00;96.70;;;;;;1798002;75;21874;-84
2023/05/27 07:37:26;;;;;;;20.88;16.60;;;33.00;96.60;;;;;;1888744;75;21111;-76
2023/05/27 07:40:37;;;;;;;32.23;17.87;;;32.90;96.70;;;;;;1879420;75;21657;-87
2023/05/27 07:43:15;;;;;;;23.65;18.67;;;32.80;96.80;;;;;;1734341;80;21719;-86
2023/05/27 07:45:46;;;;;;;22.25;16.48;;;32.80;96.90;;;;;;1879604;75;21131;-79
2023/05/27 07:48:20;;;;;;;25.88;16.73;;;32.70;96.80;;;;;;1892366;75;21105;-84
2023/05/27 07:50:52;;;;;;;23.42;16.93;;;32.60;96.90;;;;;;1883236;75;21088;-85
2023/05/27 07:53:24;;;;;;;21.80;17.48;;;32.60;96.90;;;;;;1870226;75;21112;-84
2023/05/27 07:55:55;;;;;;;19.32;17.30;;;32.60;96.90;;;;;;1867180;75;21091;-79
2023/05/27 07:58:29;;;;;;;24.60;17.67;;;32.70;97.10;;;;;;1879072;76;21279;-78
2023/05/27 08:01:01;;;;;;;19.65;17.00;;;32.70;97.10;;;;;;1877818;75;22055;-85
2023/05/27 08:03:32;;;;;;;22.15;17.90;;;32.60;97.30;;;;;;1861570;75;21637;-80
2023/05/27 08:06:04;;;;;;;23.85;17.62;;;32.60;97.00;;;;;;1868633;75;21603;-83
2023/05/27 08:08:35;;;;;;;21.48;17.45;;;32.60;97.10;;;;;;1868406;75;21664;-83
2023/05/27 08:11:32;;;;;;;22.25;17.98;;;32.60;97.20;;;;;;1865941;75;21197;-84
2023/05/27 08:14:04;;;;;;;24.75;18.07;;;32.60;97.30;;;;;;1816994;76;21231;-77
2023/05/27 08:19:46;;;;;;;21.87;17.65;;;32.50;97.50;;;;;;1867122;75;21075;-86
2023/05/27 08:22:19;;;;;;;19.87;17.67;;;32.50;97.60;;;;;;1859181;76;21135;-81
2023/05/27 08:24:51;;;;;;;25.25;17.52;;;32.60;97.60;;;;;;1865698;75;21206;-81
2023/05/27 08:27:23;;;;;;;19.27;17.27;;;32.70;97.60;;;;;;1825648;75;21075;-82
2023/05/27 08:29:58;;;;;;;22.50;17.82;;;32.70;97.40;;;;;;1859986;75;21211;-80
2023/05/27 08:32:29;;;;;;;20.52;17.70;;;32.70;97.30;;;;;;1855902;75;21185;-82
2023/05/27 08:35:01;;;;;;;25.97;19.12;;;32.80;97.20;;;;;;1868556;75;21211;-84
2023/05/27 08:37:32;;;;;;;22.77;17.77;;;32.80;97.00;;;;;;1873703;75;21107;-88
2023/05/27 08:40:09;;;;;;;20.97;18.42;;;32.80;97.00;;;;;;1865830;76;21146;-85
2023/05/27 08:42:37;;;;;;;19.42;17.42;;;32.70;97.10;;;;;;1858076;75;21150;-87
2023/05/27 08:45:14;;;;;;;25.88;20.02;;;32.70;97.20;;;;;;1862553;75;21110;-83
2023/05/27 08:47:42;;;;;;;20.88;17.37;;;32.70;97.10;;;;;;1812184;77;21155;-78
2023/05/27 08:50:13;;;;;;;23.38;17.98;;;32.70;96.80;;;;;;1858527;75;21107;-86
2023/05/27 08:52:50;;;;;;;22.13;17.60;;;32.70;97.20;;;;;;1862292;75;21267;-83
2023/05/27 08:55:26;;;;;;;23.38;17.87;;;32.80;97.20;;;;;;1856080;75;21134;-83
2023/05/27 08:58:01;;;;;;;23.18;18.62;;;32.80;97.30;;;;;;1856199;75;21060;-85
2023/05/27 09:00:43;;;;;;;;;;;32.80;97.20;;;;;;1863455;75;21245;-83
2023/05/27 09:03:16;;;;;;;24.60;20.97;;;32.80;97.50;;;;;;1861883;75;20222;-87
2023/05/27 09:05:47;;;;;;;19.80;17.17;;;32.90;97.20;;;;;;1865936;75;21170;-85
2023/05/27 09:08:19;;;;;;;28.40;19.80;;;32.90;97.20;;;;;;1857415;75;21166;-84
2023/05/27 09:10:50;;;;;;;23.27;17.57;;;32.90;97.00;;;;;;1858107;75;21103;-82
2023/05/27 09:13:31;;;;;;;34.03;19.57;;;32.90;95.10;;;;;;1833346;75;21246;-85
2023/05/27 09:16:04;;;;;;;20.30;17.52;;;32.90;95.60;;;;;;1861677;76;21118;-81
2023/05/27 09:18:43;;;;;;;26.23;18.45;;;33.00;95.00;;;;;;1863569;75;21197;-78
2023/05/27 09:21:18;;;;;;;23.45;17.87;;;33.00;95.70;;;;;;1854927;75;21127;-82
2023/05/27 09:23:51;;;;;;;22.37;17.82;;;33.00;96.00;;;;;;1855438;75;21119;-79
2023/05/27 09:26:27;;;;;;;30.10;23.05;;;33.00;95.80;;;;;;1875229;75;21145;-76
2023/05/27 09:29:02;;;;;;;;;;;33.00;96.10;;;;;;1857759;77;21142;-83
2023/05/27 09:31:36;;;;;;;22.52;17.48;;;33.00;96.40;;;;;;1859320;75;20246;-84
2023/05/27 09:34:12;;;;;;;24.67;19.17;;;33.00;96.10;;;;;;1860777;76;21208;-81
2023/05/27 09:36:47;;;;;;;20.35;18.02;;;33.00;96.00;;;;;;1862370;75;21184;-84
2023/05/27 09:39:24;;;;;;;22.82;18.87;;;33.00;96.10;;;;;;1852545;77;21240;-81
2023/05/27 09:42:14;;;;;;;22.60;17.52;;;33.00;96.20;;;;;;1850828;76;21114;-83
2023/05/27 09:44:48;;;;;;;23.57;18.02;;;33.00;96.30;;;;;;1865154;75;21098;-81
2023/05/27 09:47:20;;;;;;;24.63;17.40;;;32.90;96.20;;;;;;1857004;76;21109;-84
2023/05/27 09:49:54;;;;;;;20.92;17.12;;;32.90;95.90;;;;;;1862919;75;21216;-84
2023/05/27 09:52:26;;;;;;;23.10;16.80;;;32.90;96.10;;;;;;1855325;75;21204;-77
2023/05/27 09:54:58;;;;;;;21.97;17.55;;;32.90;96.10;;;;;;1866982;75;21128;-79
2023/05/27 09:57:29;;;;;;;19.15;17.07;;;32.90;96.30;;;;;;1863205;75;21155;-85
2023/05/27 10:00:14;;;;;;;20.32;16.55;;;32.80;96.20;;;;;;1873181;75;21200;-81
2023/05/27 10:02:47;;;;;;;22.13;16.90;;;32.90;96.20;;;;;;1864223;75;21230;-82
2023/05/27 10:05:20;;;;;;;21.68;17.65;;;32.80;96.10;;;;;;1867639;75;21138;-81
2023/05/27 10:07:53;;;;;;;20.88;17.65;;;32.80;96.10;;;;;;1869036;75;21092;-83
2023/05/27 10:10:27;;;;;;;25.10;16.55;;;32.70;96.20;;;;;;1859980;75;21283;-79
2023/05/27 10:13:00;;;;;;;23.50;17.07;;;32.70;96.10;;;;;;1823003;76;21186;-82
2023/05/27 10:15:32;;;;;;;24.20;16.90;;;32.70;95.70;;;;;;1858068;75;21179;-80
2023/05/27 10:18:13;;;;;;;27.73;17.12;;;32.70;95.70;;;;;;1868773;75;21196;-80
2023/05/27 10:20:46;;;;;;;23.70;17.48;;;32.70;95.60;;;;;;1864113;75;21215;-79
2023/05/27 10:23:41;;;;;;;23.38;16.90;;;32.70;95.50;;;;;;1891092;75;21200;-81
2023/05/27 10:26:11;;;;;;;21.82;17.23;;;32.60;95.30;;;;;;1858631;75;21206;-83
2023/05/27 10:32:11;;;;;;;26.62;17.25;;;32.60;95.10;;;;;;1737185;80;21324;-85
2023/05/27 10:34:46;;;;;;;25.17;17.82;;;32.50;95.20;;;;;;1867256;75;21210;-79
2023/05/27 10:37:24;;;;;;;19.57;17.45;;;32.50;95.30;;;;;;1888654;75;21133;-82
2023/05/27 10:39:58;;;;;;;21.75;17.37;;;32.50;95.50;;;;;;1853608;75;21116;-80
2023/05/27 10:42:33;;;;;;;20.43;18.12;;;32.50;95.40;;;;;;1794871;78;21186;-86
2023/05/27 10:45:06;;;;;;;21.10;18.02;;;32.50;95.50;;;;;;1828433;77;21153;-82
2023/05/27 10:47:46;;;;;;;22.82;18.67;;;32.40;95.10;;;;;;1833046;76;21235;-84
2023/05/27 10:53:26;;;;;;;22.60;17.05;;;32.40;95.10;;;;;;1819552;77;21147;-81
2023/05/27 10:55:59;;;;;;;26.52;17.27;;;32.40;94.80;;;;;;1852471;75;21156;-79
2023/05/27 10:58:35;;;;;;;21.15;17.27;;;32.30;94.80;;;;;;1858080;75;21154;-84
2023/05/27 11:01:16;;;;;;;23.75;18.20;;;32.30;95.00;;;;;;1829999;76;21526;-85
2023/05/27 11:03:49;;;;;;;21.50;17.35;;;32.30;95.00;;;;;;1832649;76;21451;-86
2023/05/27 11:06:24;;;;;;;22.45;18.45;;;32.30;94.90;;;;;;1839773;76;21248;-85
2023/05/27 11:08:55;;;;;;;21.10;17.55;;;32.30;94.90;;;;;;1868151;75;21096;-82
2023/05/27 11:11:29;;;;;;;20.30;16.82;;;32.20;95.00;;;;;;1869828;75;21230;-85
2023/05/27 11:14:08;;;;;;;21.93;17.25;;;32.20;94.80;;;;;;1858592;76;21140;-78
2023/05/27 11:16:54;;;;;;;22.13;17.27;;;32.20;94.80;;;;;;1821539;75;21109;-80
2023/05/27 11:19:25;;;;;;;25.62;18.90;;;32.20;95.00;;;;;;1860191;75;21128;-82
2023/05/27 11:21:56;;;;;;;22.25;18.77;;;32.20;95.00;;;;;;1860857;75;21134;-84
2023/05/27 11:24:27;;;;;;;27.20;19.67;;;32.10;95.00;;;;;;1838609;76;22007;-79
2023/05/27 11:27:05;;;;;;;;;;;32.10;95.00;;;;;;1824984;76;21208;-85
2023/05/27 11:29:36;;;;;;;25.55;19.70;;;32.10;95.50;;;;;;1825368;76;20233;-83
2023/05/27 11:32:10;;;;;;;22.07;18.95;;;32.10;95.20;;;;;;1857321;75;21602;-82
2023/05/27 11:34:41;;;;;;;23.05;19.45;;;32.10;95.20;;;;;;1860226;75;21143;-80
2023/05/27 11:37:14;;;;;;;42.08;30.52;;;32.10;95.10;;;;;;1856888;75;21127;-83
2023/05/27 11:39:56;;;;;;;25.88;22.15;;;32.10;95.40;;;;;;1866159;76;21222;-79
2023/05/27 11:42:30;;;;;;;35.20;23.22;;;32.00;95.40;;;;;;1861643;75;21669;-77
2023/05/27 11:45:24;;;;;;;43.02;23.45;;;32.00;95.50;;;;;;1860193;75;21579;-83
2023/05/27 11:47:56;;;;;;;38.15;21.97;;;32.00;95.70;;;;;;1858984;75;21237;-80
2023/05/27 11:50:34;;;;;;;32.30;21.95;;;32.00;95.70;;;;;;1856988;75;21226;-80
2023/05/27 11:53:04;;;;;;;29.30;21.52;;;31.90;95.70;;;;;;1856843;76;21192;-82
2023/05/27 11:55:41;;;;;;;30.70;21.37;;;31.90;95.80;;;;;;1872934;75;21152;-83
2023/05/27 11:58:15;;;;;;;27.25;20.70;;;31.90;95.80;;;;;;1884350;74;21587;-83
2023/05/27 12:00:49;;;;;;;26.48;20.45;;;31.90;95.80;;;;;;1845424;76;21069;-80
2023/05/27 12:03:21;;;;;;;23.45;19.80;;;31.90;95.90;;;;;;1822107;77;21108;-80
2023/05/27 12:06:13;;;;;;;25.60;19.73;;;31.90;95.90;;;;;;1829988;76;21556;-84
2023/05/27 12:08:49;;;;;;;24.37;20.15;;;31.90;96.10;;;;;;1870198;75;21930;-81
2023/05/27 12:17:04;;;;;;;26.07;20.52;;;31.80;96.30;;;;;;1746120;78;21196;-76
2023/05/27 12:19:44;;;;;;;26.85;19.92;;;31.80;96.40;;;;;;1803900;77;21118;-77
2023/05/27 12:22:27;;;;;;;24.47;20.00;;;31.80;96.50;;;;;;1875706;75;21660;-82
2023/05/27 12:28:18;;;;;;;26.37;19.92;;;31.80;96.60;;;;;;1778109;77;21143;-81
2023/05/27 12:30:48;;;;;;;29.37;21.10;;;31.70;96.70;;;;;;1844886;76;21620;-76
2023/05/27 12:33:27;;;;;;;31.00;21.50;;;31.70;96.70;;;;;;1895028;74;21187;-81
2023/05/27 12:35:59;;;;;;;27.98;21.30;;;31.70;96.80;;;;;;1846095;76;21206;-80
2023/05/27 12:38:30;;;;;;;32.33;21.30;;;31.70;96.80;;;;;;1880709;75;21196;-80
2023/05/27 12:41:02;;;;;;;31.35;21.50;;;31.70;97.30;;;;;;1866003;75;21078;-82
2023/05/27 12:43:42;;;;;;;28.30;20.60;;;31.70;97.00;;;;;;1880576;75;21509;-76
2023/05/27 12:46:26;;;;;;;33.38;21.20;;;31.70;97.00;;;;;;1715587;82;21175;-80
2023/05/27 12:49:03;;;;;;;33.60;21.65;;;31.70;97.10;;;;;;1808261;75;21131;-80
2023/05/27 12:51:34;;;;;;;27.45;22.17;;;31.60;97.20;;;;;;1878384;75;21219;-82
2023/05/27 12:54:05;;;;;;;25.65;20.50;;;31.60;97.30;;;;;;1880644;75;21104;-79
2023/05/27 12:56:44;;;;;;;28.23;21.00;;;31.60;97.30;;;;;;1857978;75;21193;-80
2023/05/27 12:59:19;;;;;;;38.02;21.75;;;31.60;97.30;;;;;;1848124;75;21169;-85
2023/05/27 13:01:50;;;;;;;31.80;22.22;;;31.60;97.40;;;;;;1859465;75;21191;-82
2023/05/27 13:04:21;;;;;;;26.93;21.55;;;31.60;97.50;;;;;;1864287;75;21234;-82
2023/05/27 13:06:52;;;;;;;29.75;22.37;;;31.60;97.50;;;;;;1856944;75;21187;-84
2023/05/27 13:09:24;;;;;;;31.23;22.02;;;31.60;97.60;;;;;;1867585;75;21204;-82
2023/05/27 13:11:55;;;;;;;28.35;22.37;;;31.60;97.70;;;;;;1867388;75;21217;-83
2023/05/27 13:14:26;;;;;;;26.73;22.32;;;31.60;97.90;;;;;;1863257;75;21174;-79
2023/05/27 13:29:41;;;;;;;29.30;22.77;;;31.50;98.70;;;;;;1688661;83;21164;-89
2023/05/27 13:32:32;;;;;;;28.85;23.22;;;31.50;98.80;;;;;;1932812;72;22182;-89
2023/05/27 13:35:05;;;;;;;31.20;22.60;;;31.50;98.90;;;;;;1898824;74;21151;-88
2023/05/27 13:37:42;;;;;;;30.40;24.07;;;31.50;99.00;;;;;;1899734;74;21627;-87
2023/05/27 13:40:14;;;;;;;31.60;24.12;;;31.40;99.00;;;;;;1900183;74;21120;-89
2023/05/27 13:42:50;;;;;;;26.87;22.77;;;31.40;99.10;;;;;;1895821;75;21139;-89
2023/05/27 13:45:26;;;;;;;32.17;22.90;;;31.40;99.10;;;;;;1897814;74;21124;-88
2023/05/27 13:47:59;;;;;;;27.60;23.42;;;31.40;99.10;;;;;;1902118;75;21281;-89
2023/05/27 13:50:32;;;;;;;30.40;23.55;;;31.40;99.20;;;;;;1898945;74;21098;-88
2023/05/27 13:53:09;;;;;;;30.10;23.87;;;31.30;99.20;;;;;;1889293;74;21146;-89
2023/05/27 13:55:43;;;;;;;38.58;23.60;;;31.30;99.30;;;;;;1901703;74;21627;-89
2023/05/27 13:58:26;;;;;;;34.33;24.87;;;31.30;99.30;;;;;;1900575;74;21167;-87